createdAt,value
2019-03-19T00:00:33.865Z,97739.98
2019-03-19T00:03:40.737Z,97743.27
2019-03-19T00:06:47.641Z,97732.34
2019-03-19T00:09:54.602Z,97737.06
2019-03-19T00:13:01.673Z,97739.64
2019-03-19T00:16:08.575Z,97742.91
2019-03-19T00:19:22.437Z,97746.17
2019-03-19T00:22:28.970Z,97747.59
2019-03-19T00:25:35.751Z,97749.31
2019-03-19T00:28:42.559Z,97751.45
2019-03-19T00:31:49.375Z,97754.30
2019-03-19T00:34:56.345Z,97757.45
2019-03-19T00:38:04.275Z,97760.16
2019-03-19T00:41:11.171Z,97759.87
2019-03-19T00:44:18.076Z,97758.13
2019-03-19T00:47:27.648Z,97762.42
2019-03-19T00:50:34.540Z,97764.92
2019-03-19T00:53:41.412Z,97766.70
2019-03-19T00:56:48.336Z,97770.02
2019-03-19T00:59:56.407Z,97770.88
2019-03-19T01:03:03.240Z,97767.08
2019-03-19T01:06:10.262Z,97775.50
2019-03-19T01:09:17.139Z,97779.73
2019-03-19T01:12:24.746Z,97779.33
2019-03-19T01:15:31.590Z,97784.77
2019-03-19T01:18:40.531Z,97785.21
2019-03-19T01:21:50.395Z,97785.14
2019-03-19T01:24:58.400Z,97782.23
2019-03-19T01:28:05.412Z,97786.48
2019-03-19T01:31:12.243Z,97785.22
2019-03-19T01:34:19.085Z,97790.69
2019-03-19T01:37:28.272Z,97782.69
2019-03-19T01:40:35.549Z,97780.52
2019-03-19T01:43:42.338Z,97781.77
2019-03-19T01:46:49.165Z,97777.03
2019-03-19T01:49:56.111Z,97778.29
2019-03-19T01:53:02.983Z,97776.16
2019-03-19T01:56:09.852Z,97790.87
2019-03-19T01:59:16.694Z,97789.66
2019-03-19T02:02:24.385Z,97800.11
2019-03-19T02:05:32.445Z,97790.95
2019-03-19T02:08:39.343Z,97798.42
2019-03-19T02:11:46.206Z,97798.41
2019-03-19T02:14:53.466Z,97803.00
2019-03-19T02:18:00.286Z,97804.73
2019-03-19T02:21:07.318Z,97806.41
2019-03-19T02:24:14.167Z,97809.14
2019-03-19T02:27:23.999Z,97819.56
2019-03-19T02:30:31.027Z,97832.38
2019-03-19T02:33:37.977Z,97837.48
2019-03-19T02:36:44.715Z,97837.88
2019-03-19T02:39:51.616Z,97840.29
2019-03-19T02:42:58.529Z,97845.56
2019-03-19T02:46:05.457Z,97844.37
2019-03-19T02:49:12.275Z,97852.31
2019-03-19T02:52:19.216Z,97857.00
2019-03-19T02:55:26.478Z,97862.47
2019-03-19T02:58:33.432Z,97865.20
2019-03-19T03:01:40.268Z,97874.48
2019-03-19T03:04:48.154Z,97878.49
2019-03-19T03:07:54.988Z,97883.39
2019-03-19T03:11:01.882Z,97881.61
2019-03-19T03:14:08.798Z,97883.47
2019-03-19T03:17:16.695Z,97885.38
2019-03-19T03:20:23.590Z,97891.37
2019-03-19T03:23:30.522Z,97891.35
2019-03-19T03:26:47.817Z,97893.14
2019-03-19T03:29:46.002Z,97894.61
2019-03-19T03:32:52.913Z,97891.75
2019-03-19T03:35:59.810Z,97892.77
2019-03-19T03:39:09.119Z,97897.36
2019-03-19T03:42:16.145Z,97890.77
2019-03-19T03:45:24.639Z,97890.88
2019-03-19T03:48:31.489Z,97891.88
2019-03-19T03:51:38.464Z,97894.92
2019-03-19T03:54:45.347Z,97894.69
2019-03-19T03:57:52.215Z,97898.37
2019-03-19T04:00:59.149Z,97892.38
2019-03-19T04:04:06.087Z,97893.70
2019-03-19T04:07:13.637Z,97900.43
2019-03-19T04:10:20.527Z,97909.89
2019-03-19T04:13:27.424Z,97917.05
2019-03-19T04:16:55.135Z,97914.95
2019-03-19T04:20:07.150Z,97913.16
2019-03-19T04:23:24.178Z,97921.95
2019-03-19T04:26:32.743Z,97923.69
2019-03-19T04:29:41.217Z,97923.25
2019-03-19T04:32:51.310Z,97932.79
2019-03-19T04:36:02.848Z,97932.64
2019-03-19T04:39:10.074Z,97938.40
2019-03-19T04:42:16.933Z,97936.39
2019-03-19T04:45:25.661Z,97940.52
2019-03-19T04:48:32.417Z,97943.23
2019-03-19T04:51:39.287Z,97941.21
2019-03-19T04:54:48.585Z,97942.84
2019-03-19T04:57:55.475Z,97949.20
2019-03-19T05:01:02.472Z,97952.97
2019-03-19T05:04:09.412Z,97958.80
2019-03-19T05:07:17.977Z,97963.77
2019-03-19T05:10:25.084Z,97962.19
2019-03-19T05:13:31.910Z,97971.44
2019-03-19T05:16:38.704Z,97974.05
2019-03-19T05:19:45.630Z,97970.91
2019-03-19T05:22:52.547Z,97978.81
2019-03-19T05:26:00.991Z,97978.30
2019-03-19T05:29:09.047Z,97984.78
2019-03-19T05:32:16.043Z,97989.47
2019-03-19T05:35:22.941Z,97981.61
2019-03-19T05:38:30.776Z,97988.77
2019-03-19T05:41:37.656Z,97999.52
2019-03-19T05:44:44.518Z,97987.55
2019-03-19T05:47:51.391Z,97987.55
2019-03-19T05:50:58.228Z,97996.78
2019-03-19T05:54:05.176Z,98002.11
2019-03-19T05:57:13.711Z,98007.91
2019-03-19T06:00:21.745Z,98014.00
2019-03-19T06:03:28.580Z,98014.00
2019-03-19T06:06:35.461Z,98013.92
2019-03-19T06:09:43.938Z,98020.05
2019-03-19T06:12:50.815Z,98024.13
2019-03-19T06:15:57.643Z,98027.27
2019-03-19T06:19:04.508Z,98031.91
2019-03-19T06:22:11.345Z,98032.86
2019-03-19T06:25:19.284Z,98030.09
2019-03-19T06:28:26.187Z,98033.73
2019-03-19T06:31:34.676Z,98031.75
2019-03-19T06:34:41.438Z,98040.27
2019-03-19T06:37:48.367Z,98042.71
2019-03-19T06:40:55.137Z,98041.05
2019-03-19T06:44:02.046Z,98039.52
2019-03-19T06:47:14.680Z,98048.37
2019-03-19T06:50:21.541Z,98052.34
2019-03-19T06:53:28.386Z,98049.03
2019-03-19T06:56:35.247Z,98061.27
2019-03-19T06:59:42.011Z,98067.65
2019-03-19T07:02:50.171Z,98069.84
2019-03-19T07:05:57.022Z,98066.55
2019-03-19T07:09:04.200Z,98069.94
2019-03-19T07:12:13.299Z,98068.73
2019-03-19T07:15:20.158Z,98080.91
2019-03-19T07:18:27.140Z,98079.30
2019-03-19T07:21:33.946Z,98080.59
2019-03-19T07:24:40.789Z,98082.75
2019-03-19T07:27:47.655Z,98084.02
2019-03-19T07:30:56.776Z,98084.45
2019-03-19T07:34:03.675Z,98084.88
2019-03-19T07:37:11.228Z,98092.47
2019-03-19T07:40:18.328Z,98100.59
2019-03-19T07:43:25.267Z,98107.51
2019-03-19T07:46:32.137Z,98107.55
2019-03-19T07:49:39.019Z,98108.05
2019-03-19T07:52:45.899Z,98113.06
2019-03-19T07:55:53.561Z,98110.98
2019-03-19T07:59:00.793Z,98111.31
2019-03-19T08:02:07.611Z,98112.27
2019-03-19T08:05:14.998Z,98120.80
2019-03-19T08:08:21.896Z,98123.34
2019-03-19T08:11:28.788Z,98124.25
2019-03-19T08:14:38.514Z,98130.19
2019-03-19T08:17:45.379Z,98130.66
2019-03-19T08:20:52.159Z,98134.02
2019-03-19T08:23:59.321Z,98130.66
2019-03-19T08:27:06.168Z,98134.03
2019-03-19T08:30:16.352Z,98137.05
2019-03-19T08:33:24.223Z,98148.87
2019-03-19T08:36:31.221Z,98147.58
2019-03-19T08:39:40.225Z,98155.22
2019-03-19T08:42:47.184Z,98152.80
2019-03-19T08:45:54.124Z,98158.75
2019-03-19T08:49:04.697Z,98155.80
2019-03-19T08:52:13.251Z,98154.13
2019-03-19T08:55:20.203Z,98161.31
2019-03-19T08:58:27.117Z,98161.23
2019-03-19T09:01:34.039Z,98160.43
2019-03-19T09:04:41.234Z,98167.60
2019-03-19T09:07:48.182Z,98166.72
2019-03-19T09:10:56.431Z,98170.08
2019-03-19T09:14:03.294Z,98178.97
2019-03-19T09:17:10.322Z,98181.94
2019-03-19T09:20:17.372Z,98178.61
2019-03-19T09:23:24.281Z,98174.03
2019-03-19T09:26:31.220Z,98169.39
2019-03-19T09:29:38.106Z,98177.89
2019-03-19T09:32:45.086Z,98177.48
2019-03-19T09:35:51.938Z,98180.45
2019-03-19T09:38:58.896Z,98183.38
2019-03-19T09:42:06.269Z,98185.06
2019-03-19T09:45:15.143Z,98192.64
2019-03-19T09:48:21.987Z,98196.86
2019-03-19T09:51:28.869Z,98197.33
2019-03-19T09:54:35.714Z,98197.79
2019-03-19T09:57:42.600Z,98189.75
2019-03-19T10:00:49.480Z,98193.58
2019-03-19T10:03:56.341Z,98185.52
2019-03-19T10:07:06.334Z,98188.50
2019-03-19T10:10:13.600Z,98185.51
2019-03-19T10:13:21.358Z,98182.11
2019-03-19T10:16:28.244Z,98185.52
2019-03-19T10:19:36.278Z,98188.91
2019-03-19T10:22:43.133Z,98190.14
2019-03-19T10:25:51.182Z,98191.87
2019-03-19T10:28:59.457Z,98186.79
2019-03-19T10:32:06.332Z,98191.88
2019-03-19T10:35:14.700Z,98201.62
2019-03-19T10:38:26.681Z,98207.11
2019-03-19T10:41:34.533Z,98208.37
2019-03-19T10:44:41.400Z,98214.31
2019-03-19T10:47:48.294Z,98201.53
2019-03-19T10:50:55.253Z,98201.53
2019-03-19T10:54:02.292Z,98198.57
2019-03-19T10:57:09.136Z,98197.19
2019-03-19T11:00:22.837Z,98203.36
2019-03-19T11:03:29.712Z,98202.41
2019-03-19T11:06:36.825Z,98199.64
2019-03-19T11:09:43.745Z,98202.28
2019-03-19T11:12:51.872Z,98205.69
2019-03-19T11:16:00.107Z,98201.45
2019-03-19T11:19:08.792Z,98201.84
2019-03-19T11:22:17.848Z,98199.31
2019-03-19T11:25:26.425Z,98206.38
2019-03-19T11:28:33.395Z,98205.98
2019-03-19T11:31:40.272Z,98200.60
2019-03-19T11:34:47.211Z,98194.42
2019-03-19T11:37:54.091Z,98203.91
2019-03-19T11:41:01.086Z,98204.33
2019-03-19T11:44:08.051Z,98213.86
2019-03-19T11:47:16.608Z,98209.22
2019-03-19T11:50:24.017Z,98212.59
2019-03-19T11:53:30.803Z,98205.26
2019-03-19T11:56:37.778Z,98207.81
2019-03-19T11:59:44.743Z,98213.88
2019-03-19T12:02:51.615Z,98208.75
2019-03-19T12:05:58.518Z,98213.20
2019-03-19T12:09:07.259Z,98213.98
2019-03-19T12:12:14.036Z,98209.29
2019-03-19T12:15:20.947Z,98213.69
2019-03-19T12:18:27.865Z,98210.76
2019-03-19T12:21:35.942Z,98214.04
2019-03-19T12:24:44.227Z,98215.13
2019-03-19T12:27:51.157Z,98216.34
2019-03-19T12:30:58.023Z,98214.47
2019-03-19T12:34:04.973Z,98210.02
2019-03-19T12:37:11.801Z,98210.82
2019-03-19T12:40:20.223Z,98212.25
2019-03-19T12:43:27.547Z,98219.94
2019-03-19T12:46:34.458Z,98221.64
2019-03-19T12:49:43.690Z,98222.16
2019-03-19T12:52:51.499Z,98225.12
2019-03-19T12:55:59.237Z,98225.16
2019-03-19T12:59:07.272Z,98224.73
2019-03-19T13:02:14.178Z,98227.64
2019-03-19T13:05:22.593Z,98224.50
2019-03-19T13:08:29.776Z,98218.81
2019-03-19T13:11:36.663Z,98221.52
2019-03-19T13:14:43.511Z,98217.78
2019-03-19T13:17:50.378Z,98225.30
2019-03-19T13:20:57.190Z,98225.45
2019-03-19T13:24:04.067Z,98219.30
2019-03-19T13:27:11.763Z,98227.91
2019-03-19T13:30:19.947Z,98229.94
2019-03-19T13:33:26.871Z,98230.03
2019-03-19T13:36:33.844Z,98228.70
2019-03-19T13:39:40.797Z,98226.29
2019-03-19T13:42:47.662Z,98229.76
2019-03-19T13:45:54.609Z,98228.34
2019-03-19T13:49:01.643Z,98231.95
2019-03-19T13:52:08.472Z,98229.24
2019-03-19T13:55:15.964Z,98232.94
2019-03-19T13:58:23.694Z,98233.16
2019-03-19T14:01:30.678Z,98242.39
2019-03-19T14:04:38.575Z,98240.48
2019-03-19T14:07:47.945Z,98237.70
2019-03-19T14:10:55.171Z,98243.51
2019-03-19T14:14:02.113Z,98237.92
2019-03-19T14:17:11.822Z,98247.78
2019-03-19T14:20:18.719Z,98243.51
2019-03-19T14:23:25.744Z,98248.23
2019-03-19T14:26:32.634Z,98246.20
2019-03-19T14:29:39.744Z,98248.66
2019-03-19T14:32:47.927Z,98252.98
2019-03-19T14:35:54.854Z,98248.37
2019-03-19T14:39:01.758Z,98252.20
2019-03-19T14:42:10.166Z,98253.50
2019-03-19T14:45:17.225Z,98257.40
2019-03-19T14:48:24.205Z,98253.59
2019-03-19T14:51:31.936Z,98260.34
2019-03-19T14:54:38.846Z,98269.27
2019-03-19T14:57:45.750Z,98267.98
2019-03-19T15:00:52.599Z,98269.28
2019-03-19T15:03:59.607Z,98269.61
2019-03-19T15:07:09.960Z,98272.50
2019-03-19T15:10:17.295Z,98273.85
2019-03-19T15:13:24.248Z,98272.08
2019-03-19T15:16:31.194Z,98281.09
2019-03-19T15:19:38.053Z,98283.23
2019-03-19T15:22:44.947Z,98282.81
2019-03-19T15:25:51.948Z,98287.48
2019-03-19T15:28:58.977Z,98275.86
2019-03-19T15:32:06.296Z,98280.16
2019-03-19T15:35:13.451Z,98278.78
2019-03-19T15:38:20.358Z,98285.11
2019-03-19T15:41:27.328Z,98285.95
2019-03-19T15:44:34.113Z,98290.17
2019-03-19T15:47:41.113Z,98283.38
2019-03-19T15:50:49.075Z,98290.41
2019-03-19T15:53:55.891Z,98287.98
2019-03-19T15:57:03.312Z,98290.44
2019-03-19T16:00:13.879Z,98293.13
2019-03-19T16:03:21.829Z,98291.30
2019-03-19T16:06:28.790Z,98293.92
2019-03-19T16:09:35.627Z,98296.52
2019-03-19T16:12:42.716Z,98295.28
2019-03-19T16:15:50.616Z,98301.27
2019-03-19T16:18:57.733Z,98310.22
2019-03-19T16:22:04.610Z,98309.85
2019-03-19T16:25:11.671Z,98314.52
2019-03-19T16:28:18.682Z,98311.94
2019-03-19T16:31:25.637Z,98315.27
2019-03-19T16:34:32.940Z,98320.75
2019-03-19T16:37:41.757Z,98322.88
2019-03-19T16:40:53.026Z,98329.36
2019-03-19T16:44:00.159Z,98330.20
2019-03-19T16:47:07.091Z,98334.06
2019-03-19T16:50:16.124Z,98336.56
2019-03-19T16:53:22.978Z,98340.44
2019-03-19T16:56:31.006Z,98342.14
2019-03-19T16:59:38.109Z,98345.07
2019-03-19T17:02:46.025Z,98346.44
2019-03-19T17:05:53.108Z,98360.40
2019-03-19T17:08:59.992Z,98362.97
2019-03-19T17:12:09.349Z,98370.16
2019-03-19T17:15:16.533Z,98382.02
2019-03-19T17:18:24.368Z,98386.69
2019-03-19T17:21:31.350Z,98390.09
2019-03-19T17:24:38.217Z,98387.13
2019-03-19T17:27:45.123Z,98395.14
2019-03-19T17:30:52.441Z,98394.32
2019-03-19T17:33:59.410Z,98402.36
2019-03-19T17:37:06.665Z,98407.86
2019-03-19T17:40:13.944Z,98408.70
2019-03-19T17:43:21.845Z,98421.42
2019-03-19T17:46:28.921Z,98416.77
2019-03-19T17:49:35.803Z,98410.84
2019-03-19T17:52:45.846Z,98412.94
2019-03-19T17:55:52.847Z,98417.61
2019-03-19T17:58:59.766Z,98421.40
2019-03-19T18:02:09.952Z,98430.72
2019-03-19T18:05:16.962Z,98431.19
2019-03-19T18:08:23.849Z,98438.34
2019-03-19T18:11:30.960Z,98439.19
2019-03-19T18:14:38.954Z,98440.91
2019-03-19T18:17:45.961Z,98445.58
2019-03-19T18:20:52.822Z,98451.50
2019-03-19T18:24:02.943Z,98456.53
2019-03-19T18:27:09.844Z,98465.46
2019-03-19T18:30:17.145Z,98467.81
2019-03-19T18:33:24.186Z,98464.55
2019-03-19T18:36:31.092Z,98469.20
2019-03-19T18:39:38.425Z,98473.78
2019-03-19T18:42:45.298Z,98478.80
2019-03-19T18:45:57.080Z,98482.23
2019-03-19T18:49:04.395Z,98483.53
2019-03-19T18:52:12.055Z,98478.80
2019-03-19T18:55:21.245Z,98482.47
2019-03-19T18:58:28.886Z,98486.41
2019-03-19T19:01:36.931Z,98491.52
2019-03-19T19:04:46.485Z,98494.50
2019-03-19T19:07:53.445Z,98492.66
2019-03-19T19:11:01.112Z,98500.80
2019-03-19T19:14:09.661Z,98496.97
2019-03-19T19:17:17.778Z,98505.88
2019-03-19T19:20:26.115Z,98509.90
2019-03-19T19:23:36.881Z,98508.09
2019-03-19T19:26:44.991Z,98502.64
2019-03-19T19:29:53.145Z,98503.02
2019-03-19T19:33:02.509Z,98507.20
2019-03-19T19:36:10.888Z,98517.44
2019-03-19T19:39:19.545Z,98510.26
2019-03-19T19:42:28.815Z,98511.41
2019-03-19T19:45:36.921Z,98515.49
2019-03-19T19:48:45.168Z,98528.94
2019-03-19T19:51:53.596Z,98527.03
2019-03-19T19:55:01.866Z,98526.26
2019-03-19T19:58:10.142Z,98524.84
2019-03-19T20:01:18.167Z,98530.03
2019-03-19T20:04:26.489Z,98531.13
2019-03-19T20:07:34.575Z,98536.00
2019-03-19T20:10:42.467Z,98540.66
2019-03-19T20:13:50.254Z,98537.54
2019-03-19T20:16:58.431Z,98540.56
2019-03-19T20:20:07.998Z,98541.91
2019-03-19T20:23:15.890Z,98545.55
2019-03-19T20:26:24.585Z,98545.40
2019-03-19T20:29:33.514Z,98549.13
2019-03-19T20:32:41.591Z,98552.53
2019-03-19T20:35:49.940Z,98557.54
2019-03-19T20:39:01.520Z,98560.05
2019-03-19T20:42:11.469Z,98563.52
2019-03-19T20:45:23.040Z,98573.23
2019-03-19T20:48:31.437Z,98574.95
2019-03-19T20:51:39.513Z,98577.55
2019-03-19T20:54:47.566Z,98575.69
2019-03-19T20:57:55.446Z,98579.16
2019-03-19T21:01:09.425Z,98579.88
2019-03-19T21:04:20.445Z,98578.97
2019-03-19T21:07:28.638Z,98586.44
2019-03-19T21:10:36.498Z,98589.36
2019-03-19T21:13:44.244Z,98587.44
2019-03-19T21:16:52.197Z,98592.70
2019-03-19T21:20:00.346Z,98596.09
2019-03-19T21:23:08.421Z,98596.09
2019-03-19T21:26:18.508Z,98604.09
2019-03-19T21:29:26.639Z,98603.52
2019-03-19T21:32:34.741Z,98597.33
2019-03-19T21:35:42.758Z,98604.23
2019-03-19T21:38:50.738Z,98610.38
2019-03-19T21:42:03.567Z,98611.26
2019-03-19T21:45:12.652Z,98609.05
2019-03-19T21:48:22.288Z,98613.22
2019-03-19T21:51:30.575Z,98614.48
2019-03-19T21:54:41.402Z,98619.08
2019-03-19T21:57:49.634Z,98619.14
2019-03-19T22:00:57.472Z,98623.90
2019-03-19T22:04:06.956Z,98623.34
2019-03-19T22:07:14.871Z,98626.58
2019-03-19T22:10:23.648Z,98630.08
2019-03-19T22:13:34.048Z,98632.79
2019-03-19T22:16:42.069Z,98633.37
2019-03-19T22:19:52.442Z,98637.77
2019-03-19T22:23:00.676Z,98640.79
2019-03-19T22:26:09.110Z,98646.58
2019-03-19T22:29:17.476Z,98644.92
2019-03-19T22:32:25.379Z,98644.25
2019-03-19T22:35:35.211Z,98636.64
2019-03-19T22:38:43.167Z,98634.01
2019-03-19T22:41:51.855Z,98637.31
2019-03-19T22:45:00.160Z,98636.97
2019-03-19T22:48:10.744Z,98641.94
2019-03-19T22:51:19.281Z,98641.19
2019-03-19T22:54:27.190Z,98646.91
2019-03-19T22:57:35.433Z,98647.62
2019-03-19T23:00:45.380Z,98650.75
2019-03-19T23:03:58.586Z,98653.52
2019-03-19T23:07:07.022Z,98651.06
2019-03-19T23:10:16.444Z,98649.39
2019-03-19T23:13:26.128Z,98653.31
2019-03-19T23:16:33.917Z,98655.52
2019-03-19T23:19:42.073Z,98653.64
2019-03-19T23:22:49.962Z,98650.63
2019-03-19T23:25:57.988Z,98649.46
2019-03-19T23:29:05.814Z,98661.89
2019-03-19T23:32:13.958Z,98662.25
2019-03-19T23:35:21.975Z,98659.19
2019-03-19T23:38:30.386Z,98663.33
2019-03-19T23:41:38.366Z,98662.50
2019-03-19T23:44:46.677Z,98667.89
2019-03-19T23:48:01.236Z,98671.17
2019-03-19T23:51:09.479Z,98674.58
2019-03-19T23:54:17.675Z,98677.48
2019-03-19T23:57:25.768Z,98678.94
